sensor_id;sensor_type;location;lat;lon;timestamp;P1;durP1;ratioP1;P2;durP2;ratioP2
63087;SDS011;49173;43.164;27.786;2022-10-31T00:02:21;16.35;;;12.00;;
63087;SDS011;49173;43.164;27.786;2022-10-31T00:04:47;19.98;;;13.13;;
63087;SDS011;49173;43.164;27.786;2022-10-31T00:07:13;21.52;;;12.27;;
63087;SDS011;49173;43.164;27.786;2022-10-31T00:09:38;17.73;;;12.60;;
63087;SDS011;49173;43.164;27.786;2022-10-31T00:12:04;16.88;;;12.32;;
63087;SDS011;49173;43.164;27.786;2022-10-31T00:14:30;15.40;;;12.77;;
63087;SDS011;49173;43.164;27.786;2022-10-31T00:16:56;19.55;;;13.20;;
63087;SDS011;49173;43.164;27.786;2022-10-31T00:19:21;21.98;;;15.13;;
63087;SDS011;49173;43.164;27.786;2022-10-31T00:21:47;29.67;;;19.30;;
63087;SDS011;49173;43.164;27.786;2022-10-31T00:24:13;23.73;;;18.65;;
63087;SDS011;49173;43.164;27.786;2022-10-31T00:26:39;25.88;;;18.85;;
63087;SDS011;49173;43.164;27.786;2022-10-31T00:29:05;30.80;;;22.50;;
63087;SDS011;49173;43.164;27.786;2022-10-31T00:31:31;28.15;;;20.00;;
63087;SDS011;49173;43.164;27.786;2022-10-31T00:33:57;34.70;;;23.40;;
63087;SDS011;49173;43.164;27.786;2022-10-31T00:36:22;37.78;;;25.92;;
63087;SDS011;49173;43.164;27.786;2022-10-31T00:38:48;35.03;;;26.25;;
63087;SDS011;49173;43.164;27.786;2022-10-31T00:41:14;38.67;;;28.17;;
63087;SDS011;49173;43.164;27.786;2022-10-31T00:43:42;42.38;;;31.55;;
63087;SDS011;49173;43.164;27.786;2022-10-31T00:46:09;41.40;;;31.65;;
63087;SDS011;49173;43.164;27.786;2022-10-31T00:48:35;46.83;;;31.95;;
63087;SDS011;49173;43.164;27.786;2022-10-31T00:51:00;46.70;;;33.47;;
63087;SDS011;49173;43.164;27.786;2022-10-31T00:53:26;42.60;;;31.38;;
63087;SDS011;49173;43.164;27.786;2022-10-31T00:55:52;47.60;;;32.70;;
63087;SDS011;49173;43.164;27.786;2022-10-31T00:58:18;53.70;;;35.85;;
63087;SDS011;49173;43.164;27.786;2022-10-31T01:00:44;51.15;;;38.53;;
63087;SDS011;49173;43.164;27.786;2022-10-31T01:03:11;56.85;;;41.60;;
63087;SDS011;49173;43.164;27.786;2022-10-31T01:05:37;60.15;;;43.80;;
63087;SDS011;49173;43.164;27.786;2022-10-31T01:08:03;55.97;;;39.42;;
63087;SDS011;49173;43.164;27.786;2022-10-31T01:10:29;68.05;;;44.60;;
63087;SDS011;49173;43.164;27.786;2022-10-31T01:12:55;60.55;;;44.50;;
63087;SDS011;49173;43.164;27.786;2022-10-31T01:15:21;67.85;;;43.45;;
63087;SDS011;49173;43.164;27.786;2022-10-31T01:17:48;60.50;;;43.33;;
63087;SDS011;49173;43.164;27.786;2022-10-31T01:20:15;58.92;;;41.60;;
63087;SDS011;49173;43.164;27.786;2022-10-31T01:22:41;62.47;;;41.20;;
63087;SDS011;49173;43.164;27.786;2022-10-31T01:25:08;59.08;;;43.10;;
63087;SDS011;49173;43.164;27.786;2022-10-31T01:27:35;56.88;;;42.25;;
63087;SDS011;49173;43.164;27.786;2022-10-31T01:30:00;64.88;;;43.00;;
63087;SDS011;49173;43.164;27.786;2022-10-31T01:32:26;62.95;;;42.92;;
63087;SDS011;49173;43.164;27.786;2022-10-31T01:34:54;61.72;;;44.22;;
63087;SDS011;49173;43.164;27.786;2022-10-31T01:37:20;56.63;;;42.65;;
63087;SDS011;49173;43.164;27.786;2022-10-31T01:39:47;64.47;;;43.55;;
63087;SDS011;49173;43.164;27.786;2022-10-31T01:42:18;58.78;;;41.50;;
63087;SDS011;49173;43.164;27.786;2022-10-31T01:44:50;65.78;;;43.28;;
63087;SDS011;49173;43.164;27.786;2022-10-31T01:47:30;60.33;;;39.55;;
63087;SDS011;49173;43.164;27.786;2022-10-31T01:50:04;55.15;;;39.28;;
63087;SDS011;49173;43.164;27.786;2022-10-31T01:52:38;55.22;;;39.13;;
63087;SDS011;49173;43.164;27.786;2022-10-31T01:58:01;53.65;;;38.10;;
63087;SDS011;49173;43.164;27.786;2022-10-31T02:00:32;51.92;;;38.60;;
63087;SDS011;49173;43.164;27.786;2022-10-31T02:02:58;55.60;;;39.15;;
63087;SDS011;49173;43.164;27.786;2022-10-31T02:05:25;55.50;;;38.35;;
63087;SDS011;49173;43.164;27.786;2022-10-31T02:10:44;55.17;;;37.55;;
63087;SDS011;49173;43.164;27.786;2022-10-31T02:13:10;55.40;;;40.28;;
63087;SDS011;49173;43.164;27.786;2022-10-31T02:15:38;55.63;;;39.72;;
63087;SDS011;49173;43.164;27.786;2022-10-31T02:18:06;56.53;;;40.17;;
63087;SDS011;49173;43.164;27.786;2022-10-31T02:26:25;55.35;;;38.03;;
63087;SDS011;49173;43.164;27.786;2022-10-31T02:31:46;52.30;;;36.72;;
63087;SDS011;49173;43.164;27.786;2022-10-31T02:34:44;49.38;;;35.47;;
63087;SDS011;49173;43.164;27.786;2022-10-31T02:37:38;49.28;;;33.70;;
63087;SDS011;49173;43.164;27.786;2022-10-31T02:40:35;42.33;;;29.98;;
63087;SDS011;49173;43.164;27.786;2022-10-31T02:43:26;41.90;;;28.30;;
63087;SDS011;49173;43.164;27.786;2022-10-31T02:46:08;40.53;;;26.65;;
63087;SDS011;49173;43.164;27.786;2022-10-31T02:48:42;42.22;;;28.20;;
63087;SDS011;49173;43.164;27.786;2022-10-31T02:51:11;38.07;;;27.97;;
63087;SDS011;49173;43.164;27.786;2022-10-31T02:53:38;36.03;;;24.60;;
63087;SDS011;49173;43.164;27.786;2022-10-31T02:56:09;41.80;;;25.83;;
63087;SDS011;49173;43.164;27.786;2022-10-31T02:58:39;37.35;;;24.85;;
63087;SDS011;49173;43.164;27.786;2022-10-31T03:06:23;32.80;;;23.67;;
63087;SDS011;49173;43.164;27.786;2022-10-31T03:09:04;39.80;;;25.98;;
63087;SDS011;49173;43.164;27.786;2022-10-31T03:11:57;41.10;;;28.33;;
63087;SDS011;49173;43.164;27.786;2022-10-31T03:17:11;47.47;;;31.00;;
63087;SDS011;49173;43.164;27.786;2022-10-31T03:19:58;44.75;;;32.17;;
63087;SDS011;49173;43.164;27.786;2022-10-31T03:22:29;44.40;;;30.75;;
63087;SDS011;49173;43.164;27.786;2022-10-31T03:24:59;44.75;;;33.05;;
63087;SDS011;49173;43.164;27.786;2022-10-31T03:27:27;48.88;;;33.78;;
63087;SDS011;49173;43.164;27.786;2022-10-31T03:29:58;47.53;;;34.10;;
63087;SDS011;49173;43.164;27.786;2022-10-31T03:32:50;52.53;;;35.47;;
63087;SDS011;49173;43.164;27.786;2022-10-31T03:35:19;50.45;;;32.42;;
63087;SDS011;49173;43.164;27.786;2022-10-31T03:37:48;44.95;;;32.05;;
63087;SDS011;49173;43.164;27.786;2022-10-31T03:42:46;45.00;;;30.30;;
63087;SDS011;49173;43.164;27.786;2022-10-31T03:45:23;44.75;;;31.23;;
63087;SDS011;49173;43.164;27.786;2022-10-31T03:47:52;49.78;;;31.65;;
63087;SDS011;49173;43.164;27.786;2022-10-31T03:50:19;50.70;;;32.78;;
63087;SDS011;49173;43.164;27.786;2022-10-31T03:52:55;45.85;;;30.17;;
63087;SDS011;49173;43.164;27.786;2022-10-31T03:55:30;40.08;;;28.70;;
63087;SDS011;49173;43.164;27.786;2022-10-31T03:58:05;47.28;;;30.45;;
63087;SDS011;49173;43.164;27.786;2022-10-31T04:00:36;41.60;;;29.50;;
63087;SDS011;49173;43.164;27.786;2022-10-31T04:03:22;43.10;;;28.90;;
63087;SDS011;49173;43.164;27.786;2022-10-31T04:05:52;37.30;;;27.50;;
63087;SDS011;49173;43.164;27.786;2022-10-31T04:08:21;37.77;;;26.80;;
63087;SDS011;49173;43.164;27.786;2022-10-31T04:10:51;41.78;;;27.70;;
63087;SDS011;49173;43.164;27.786;2022-10-31T04:13:22;41.85;;;27.17;;
63087;SDS011;49173;43.164;27.786;2022-10-31T04:15:52;39.50;;;25.17;;
63087;SDS011;49173;43.164;27.786;2022-10-31T04:18:21;35.97;;;25.50;;
63087;SDS011;49173;43.164;27.786;2022-10-31T04:20:48;33.17;;;24.58;;
63087;SDS011;49173;43.164;27.786;2022-10-31T04:23:19;35.05;;;25.45;;
63087;SDS011;49173;43.164;27.786;2022-10-31T04:25:48;36.92;;;23.77;;
63087;SDS011;49173;43.164;27.786;2022-10-31T04:28:14;35.33;;;24.13;;
63087;SDS011;49173;43.164;27.786;2022-10-31T04:30:39;36.63;;;25.30;;
63087;SDS011;49173;43.164;27.786;2022-10-31T04:33:10;32.38;;;23.35;;
63087;SDS011;49173;43.164;27.786;2022-10-31T04:35:39;40.60;;;23.65;;
63087;SDS011;49173;43.164;27.786;2022-10-31T04:38:05;35.35;;;22.83;;
63087;SDS011;49173;43.164;27.786;2022-10-31T04:40:33;32.75;;;23.52;;
63087;SDS011;49173;43.164;27.786;2022-10-31T04:43:00;31.73;;;22.05;;
63087;SDS011;49173;43.164;27.786;2022-10-31T04:45:26;36.55;;;21.85;;
63087;SDS011;49173;43.164;27.786;2022-10-31T04:47:53;30.98;;;20.92;;
63087;SDS011;49173;43.164;27.786;2022-10-31T04:50:19;32.78;;;22.40;;
63087;SDS011;49173;43.164;27.786;2022-10-31T04:52:46;32.75;;;21.75;;
63087;SDS011;49173;43.164;27.786;2022-10-31T04:55:13;34.25;;;22.08;;
63087;SDS011;49173;43.164;27.786;2022-10-31T04:57:43;31.17;;;21.60;;
63087;SDS011;49173;43.164;27.786;2022-10-31T05:00:11;33.67;;;22.02;;
63087;SDS011;49173;43.164;27.786;2022-10-31T05:02:43;32.95;;;22.42;;
63087;SDS011;49173;43.164;27.786;2022-10-31T05:05:15;26.25;;;19.50;;
63087;SDS011;49173;43.164;27.786;2022-10-31T05:07:43;23.38;;;16.20;;
63087;SDS011;49173;43.164;27.786;2022-10-31T05:10:13;24.45;;;14.18;;
63087;SDS011;49173;43.164;27.786;2022-10-31T05:12:47;20.23;;;11.57;;
63087;SDS011;49173;43.164;27.786;2022-10-31T05:15:17;18.75;;;10.13;;
63087;SDS011;49173;43.164;27.786;2022-10-31T05:17:44;16.05;;;9.05;;
63087;SDS011;49173;43.164;27.786;2022-10-31T05:20:13;17.38;;;9.15;;
63087;SDS011;49173;43.164;27.786;2022-10-31T05:22:44;14.38;;;8.48;;
63087;SDS011;49173;43.164;27.786;2022-10-31T05:25:14;16.65;;;8.10;;
63087;SDS011;49173;43.164;27.786;2022-10-31T05:27:44;14.15;;;7.05;;
63087;SDS011;49173;43.164;27.786;2022-10-31T05:30:12;17.30;;;7.82;;
63087;SDS011;49173;43.164;27.786;2022-10-31T05:32:46;12.63;;;7.07;;
63087;SDS011;49173;43.164;27.786;2022-10-31T05:35:21;13.68;;;7.90;;
63087;SDS011;49173;43.164;27.786;2022-10-31T05:37:51;16.38;;;8.15;;
63087;SDS011;49173;43.164;27.786;2022-10-31T05:40:21;12.73;;;7.65;;
63087;SDS011;49173;43.164;27.786;2022-10-31T05:42:52;22.30;;;7.63;;
63087;SDS011;49173;43.164;27.786;2022-10-31T05:45:20;15.00;;;7.32;;
63087;SDS011;49173;43.164;27.786;2022-10-31T05:47:57;16.13;;;7.38;;
63087;SDS011;49173;43.164;27.786;2022-10-31T05:50:28;19.77;;;8.18;;
63087;SDS011;49173;43.164;27.786;2022-10-31T05:52:57;13.55;;;7.53;;
63087;SDS011;49173;43.164;27.786;2022-10-31T05:55:30;17.60;;;9.10;;
63087;SDS011;49173;43.164;27.786;2022-10-31T05:57:57;15.65;;;9.20;;
63087;SDS011;49173;43.164;27.786;2022-10-31T06:00:24;15.27;;;9.45;;
63087;SDS011;49173;43.164;27.786;2022-10-31T06:03:02;25.23;;;11.25;;
63087;SDS011;49173;43.164;27.786;2022-10-31T06:05:34;23.05;;;10.70;;
63087;SDS011;49173;43.164;27.786;2022-10-31T06:08:02;20.92;;;10.13;;
63087;SDS011;49173;43.164;27.786;2022-10-31T06:10:29;28.98;;;11.13;;
63087;SDS011;49173;43.164;27.786;2022-10-31T06:12:58;21.33;;;11.50;;
63087;SDS011;49173;43.164;27.786;2022-10-31T06:15:26;23.55;;;12.07;;
63087;SDS011;49173;43.164;27.786;2022-10-31T06:18:02;23.92;;;12.27;;
63087;SDS011;49173;43.164;27.786;2022-10-31T06:20:31;21.85;;;11.88;;
63087;SDS011;49173;43.164;27.786;2022-10-31T06:22:59;18.00;;;12.10;;
63087;SDS011;49173;43.164;27.786;2022-10-31T06:25:28;20.60;;;11.63;;
63087;SDS011;49173;43.164;27.786;2022-10-31T06:27:55;22.10;;;11.35;;
63087;SDS011;49173;43.164;27.786;2022-10-31T06:30:25;18.05;;;10.57;;
63087;SDS011;49173;43.164;27.786;2022-10-31T06:32:51;19.02;;;10.30;;
63087;SDS011;49173;43.164;27.786;2022-10-31T06:35:19;20.17;;;11.32;;
63087;SDS011;49173;43.164;27.786;2022-10-31T06:37:50;22.00;;;10.63;;
63087;SDS011;49173;43.164;27.786;2022-10-31T06:40:20;17.95;;;10.45;;
63087;SDS011;49173;43.164;27.786;2022-10-31T06:42:47;18.65;;;10.25;;
63087;SDS011;49173;43.164;27.786;2022-10-31T06:45:14;14.23;;;10.25;;
63087;SDS011;49173;43.164;27.786;2022-10-31T06:47:40;18.80;;;9.27;;
63087;SDS011;49173;43.164;27.786;2022-10-31T06:50:09;20.53;;;9.43;;
63087;SDS011;49173;43.164;27.786;2022-10-31T06:52:36;18.23;;;9.35;;
63087;SDS011;49173;43.164;27.786;2022-10-31T06:55:06;13.90;;;9.20;;
63087;SDS011;49173;43.164;27.786;2022-10-31T06:57:33;17.38;;;8.45;;
63087;SDS011;49173;43.164;27.786;2022-10-31T06:59:59;19.67;;;8.75;;
63087;SDS011;49173;43.164;27.786;2022-10-31T07:02:28;18.27;;;8.35;;
63087;SDS011;49173;43.164;27.786;2022-10-31T07:04:54;15.70;;;8.77;;
63087;SDS011;49173;43.164;27.786;2022-10-31T07:07:21;16.55;;;9.45;;
63087;SDS011;49173;43.164;27.786;2022-10-31T07:09:47;22.75;;;10.20;;
63087;SDS011;49173;43.164;27.786;2022-10-31T07:12:16;22.27;;;11.02;;
63087;SDS011;49173;43.164;27.786;2022-10-31T07:14:46;20.23;;;10.35;;
63087;SDS011;49173;43.164;27.786;2022-10-31T07:17:12;22.15;;;10.00;;
63087;SDS011;49173;43.164;27.786;2022-10-31T07:19:39;17.35;;;9.75;;
63087;SDS011;49173;43.164;27.786;2022-10-31T07:22:05;14.75;;;10.10;;
63087;SDS011;49173;43.164;27.786;2022-10-31T07:24:32;22.55;;;10.73;;
63087;SDS011;49173;43.164;27.786;2022-10-31T07:27:02;21.88;;;11.52;;
63087;SDS011;49173;43.164;27.786;2022-10-31T07:29:28;26.48;;;13.32;;
63087;SDS011;49173;43.164;27.786;2022-10-31T07:31:55;23.83;;;12.05;;
63087;SDS011;49173;43.164;27.786;2022-10-31T07:34:24;20.30;;;12.73;;
63087;SDS011;49173;43.164;27.786;2022-10-31T07:36:51;61.22;;;30.75;;
63087;SDS011;49173;43.164;27.786;2022-10-31T07:39:18;38.88;;;19.95;;
63087;SDS011;49173;43.164;27.786;2022-10-31T07:41:44;95.47;;;43.55;;
63087;SDS011;49173;43.164;27.786;2022-10-31T07:44:11;55.50;;;29.20;;
63087;SDS011;49173;43.164;27.786;2022-10-31T07:46:39;50.17;;;27.08;;
63087;SDS011;49173;43.164;27.786;2022-10-31T07:49:06;20.33;;;12.60;;
63087;SDS011;49173;43.164;27.786;2022-10-31T07:51:32;14.90;;;10.52;;
63087;SDS011;49173;43.164;27.786;2022-10-31T07:54:03;19.77;;;10.98;;
63087;SDS011;49173;43.164;27.786;2022-10-31T07:56:29;14.75;;;9.98;;
63087;SDS011;49173;43.164;27.786;2022-10-31T07:58:56;15.98;;;10.68;;
63087;SDS011;49173;43.164;27.786;2022-10-31T08:01:24;19.58;;;10.77;;
63087;SDS011;49173;43.164;27.786;2022-10-31T08:03:50;22.55;;;10.93;;
63087;SDS011;49173;43.164;27.786;2022-10-31T08:06:16;19.30;;;10.57;;
63087;SDS011;49173;43.164;27.786;2022-10-31T08:08:43;16.63;;;10.90;;
63087;SDS011;49173;43.164;27.786;2022-10-31T08:11:09;17.42;;;10.40;;
63087;SDS011;49173;43.164;27.786;2022-10-31T08:13:36;19.75;;;11.95;;
63087;SDS011;49173;43.164;27.786;2022-10-31T08:16:02;23.77;;;10.88;;
63087;SDS011;49173;43.164;27.786;2022-10-31T08:18:30;18.38;;;9.90;;
63087;SDS011;49173;43.164;27.786;2022-10-31T08:20:56;14.52;;;9.60;;
63087;SDS011;49173;43.164;27.786;2022-10-31T08:23:23;16.17;;;10.30;;
63087;SDS011;49173;43.164;27.786;2022-10-31T08:25:53;20.95;;;9.98;;
63087;SDS011;49173;43.164;27.786;2022-10-31T08:28:24;19.02;;;10.15;;
63087;SDS011;49173;43.164;27.786;2022-10-31T08:30:50;15.48;;;10.30;;
63087;SDS011;49173;43.164;27.786;2022-10-31T08:33:17;16.30;;;9.75;;
63087;SDS011;49173;43.164;27.786;2022-10-31T08:35:44;17.08;;;9.77;;
63087;SDS011;49173;43.164;27.786;2022-10-31T08:38:17;18.70;;;9.07;;
63087;SDS011;49173;43.164;27.786;2022-10-31T08:40:48;15.88;;;9.65;;
63087;SDS011;49173;43.164;27.786;2022-10-31T08:43:16;15.25;;;9.32;;
63087;SDS011;49173;43.164;27.786;2022-10-31T08:45:44;17.98;;;9.32;;
63087;SDS011;49173;43.164;27.786;2022-10-31T08:48:15;23.67;;;10.30;;
63087;SDS011;49173;43.164;27.786;2022-10-31T08:50:43;16.07;;;9.13;;
63087;SDS011;49173;43.164;27.786;2022-10-31T08:53:18;14.15;;;9.27;;
63087;SDS011;49173;43.164;27.786;2022-10-31T08:55:45;18.40;;;9.30;;
63087;SDS011;49173;43.164;27.786;2022-10-31T08:58:13;18.90;;;9.10;;
63087;SDS011;49173;43.164;27.786;2022-10-31T09:00:41;16.63;;;8.82;;
63087;SDS011;49173;43.164;27.786;2022-10-31T09:03:26;13.05;;;8.65;;
63087;SDS011;49173;43.164;27.786;2022-10-31T09:05:57;13.18;;;9.00;;
63087;SDS011;49173;43.164;27.786;2022-10-31T09:08:26;13.93;;;8.43;;
63087;SDS011;49173;43.164;27.786;2022-10-31T09:10:55;17.00;;;8.60;;
63087;SDS011;49173;43.164;27.786;2022-10-31T09:13:23;15.05;;;8.32;;
63087;SDS011;49173;43.164;27.786;2022-10-31T09:15:52;17.08;;;8.32;;
63087;SDS011;49173;43.164;27.786;2022-10-31T09:18:20;20.55;;;9.00;;
63087;SDS011;49173;43.164;27.786;2022-10-31T09:20:50;16.55;;;8.43;;
63087;SDS011;49173;43.164;27.786;2022-10-31T09:23:21;13.85;;;8.63;;
63087;SDS011;49173;43.164;27.786;2022-10-31T09:25:51;13.13;;;8.25;;
63087;SDS011;49173;43.164;27.786;2022-10-31T09:28:20;15.88;;;7.63;;
63087;SDS011;49173;43.164;27.786;2022-10-31T09:30:49;13.80;;;7.73;;
63087;SDS011;49173;43.164;27.786;2022-10-31T09:33:19;15.52;;;7.72;;
63087;SDS011;49173;43.164;27.786;2022-10-31T09:35:47;12.20;;;7.32;;
63087;SDS011;49173;43.164;27.786;2022-10-31T09:38:18;12.20;;;7.55;;
63087;SDS011;49173;43.164;27.786;2022-10-31T09:43:55;13.95;;;7.72;;
63087;SDS011;49173;43.164;27.786;2022-10-31T09:46:44;16.92;;;6.97;;
63087;SDS011;49173;43.164;27.786;2022-10-31T09:57:33;12.20;;;6.55;;
63087;SDS011;49173;43.164;27.786;2022-10-31T10:00:06;11.75;;;7.10;;
63087;SDS011;49173;43.164;27.786;2022-10-31T10:02:37;11.23;;;6.47;;
63087;SDS011;49173;43.164;27.786;2022-10-31T10:05:10;18.65;;;6.50;;
63087;SDS011;49173;43.164;27.786;2022-10-31T10:08:09;12.57;;;6.50;;
63087;SDS011;49173;43.164;27.786;2022-10-31T10:10:50;12.35;;;6.55;;
63087;SDS011;49173;43.164;27.786;2022-10-31T10:13:22;12.15;;;6.93;;
63087;SDS011;49173;43.164;27.786;2022-10-31T10:22:10;9.30;;;5.68;;
63087;SDS011;49173;43.164;27.786;2022-10-31T10:30:20;13.55;;;6.20;;
63087;SDS011;49173;43.164;27.786;2022-10-31T10:32:51;16.42;;;6.35;;
63087;SDS011;49173;43.164;27.786;2022-10-31T10:35:30;11.02;;;5.82;;
63087;SDS011;49173;43.164;27.786;2022-10-31T10:41:03;9.73;;;5.45;;
63087;SDS011;49173;43.164;27.786;2022-10-31T10:43:36;9.25;;;5.03;;
63087;SDS011;49173;43.164;27.786;2022-10-31T10:46:13;13.93;;;5.22;;
63087;SDS011;49173;43.164;27.786;2022-10-31T10:55:17;14.30;;;5.65;;
63087;SDS011;49173;43.164;27.786;2022-10-31T10:58:00;8.95;;;5.07;;
63087;SDS011;49173;43.164;27.786;2022-10-31T11:00:41;20.77;;;6.05;;
63087;SDS011;49173;43.164;27.786;2022-10-31T11:03:15;9.43;;;5.20;;
63087;SDS011;49173;43.164;27.786;2022-10-31T11:05:55;10.33;;;5.43;;
63087;SDS011;49173;43.164;27.786;2022-10-31T11:08:29;10.82;;;5.45;;
63087;SDS011;49173;43.164;27.786;2022-10-31T11:11:02;9.00;;;5.22;;
63087;SDS011;49173;43.164;27.786;2022-10-31T11:13:49;10.20;;;5.32;;
63087;SDS011;49173;43.164;27.786;2022-10-31T11:16:29;12.40;;;6.35;;
63087;SDS011;49173;43.164;27.786;2022-10-31T11:19:07;14.02;;;6.70;;
63087;SDS011;49173;43.164;27.786;2022-10-31T11:22:04;11.02;;;6.45;;
63087;SDS011;49173;43.164;27.786;2022-10-31T11:24:41;11.57;;;6.55;;
63087;SDS011;49173;43.164;27.786;2022-10-31T11:27:14;12.88;;;6.40;;
63087;SDS011;49173;43.164;27.786;2022-10-31T11:29:48;18.52;;;5.70;;
63087;SDS011;49173;43.164;27.786;2022-10-31T11:32:21;11.73;;;5.78;;
63087;SDS011;49173;43.164;27.786;2022-10-31T11:34:53;12.65;;;5.65;;
63087;SDS011;49173;43.164;27.786;2022-10-31T11:37:23;8.90;;;5.53;;
63087;SDS011;49173;43.164;27.786;2022-10-31T11:39:53;11.50;;;6.60;;
63087;SDS011;49173;43.164;27.786;2022-10-31T11:42:27;15.27;;;6.13;;
63087;SDS011;49173;43.164;27.786;2022-10-31T11:45:03;12.07;;;5.25;;
63087;SDS011;49173;43.164;27.786;2022-10-31T11:47:41;13.68;;;5.90;;
63087;SDS011;49173;43.164;27.786;2022-10-31T11:50:23;9.13;;;5.95;;
63087;SDS011;49173;43.164;27.786;2022-10-31T11:53:02;14.73;;;6.43;;
63087;SDS011;49173;43.164;27.786;2022-10-31T11:55:34;8.55;;;5.25;;
63087;SDS011;49173;43.164;27.786;2022-10-31T11:58:19;9.77;;;4.55;;
63087;SDS011;49173;43.164;27.786;2022-10-31T12:00:49;11.90;;;4.57;;
63087;SDS011;49173;43.164;27.786;2022-10-31T12:05:58;8.10;;;3.97;;
63087;SDS011;49173;43.164;27.786;2022-10-31T12:08:30;6.53;;;3.80;;
63087;SDS011;49173;43.164;27.786;2022-10-31T12:16:28;11.48;;;5.05;;
63087;SDS011;49173;43.164;27.786;2022-10-31T12:29:26;7.85;;;4.43;;
63087;SDS011;49173;43.164;27.786;2022-10-31T12:38:13;6.82;;;4.20;;
63087;SDS011;49173;43.164;27.786;2022-10-31T12:40:58;7.47;;;4.03;;
63087;SDS011;49173;43.164;27.786;2022-10-31T12:43:42;10.00;;;4.40;;
63087;SDS011;49173;43.164;27.786;2022-10-31T12:52:23;6.50;;;4.07;;
63087;SDS011;49173;43.164;27.786;2022-10-31T12:55:34;13.55;;;4.70;;
63087;SDS011;49173;43.164;27.786;2022-10-31T12:58:10;5.30;;;3.78;;
63087;SDS011;49173;43.164;27.786;2022-10-31T13:00:46;10.32;;;4.25;;
63087;SDS011;49173;43.164;27.786;2022-10-31T13:03:30;11.82;;;4.55;;
63087;SDS011;49173;43.164;27.786;2022-10-31T13:06:19;10.20;;;4.47;;
63087;SDS011;49173;43.164;27.786;2022-10-31T13:11:27;7.15;;;4.10;;
63087;SDS011;49173;43.164;27.786;2022-10-31T13:14:07;6.55;;;3.70;;
63087;SDS011;49173;43.164;27.786;2022-10-31T13:17:01;7.88;;;3.90;;
63087;SDS011;49173;43.164;27.786;2022-10-31T13:22:08;7.93;;;3.25;;
63087;SDS011;49173;43.164;27.786;2022-10-31T13:24:57;6.05;;;3.80;;
63087;SDS011;49173;43.164;27.786;2022-10-31T13:30:52;8.50;;;4.82;;
63087;SDS011;49173;43.164;27.786;2022-10-31T13:39:17;11.07;;;5.10;;
63087;SDS011;49173;43.164;27.786;2022-10-31T13:42:01;9.73;;;4.32;;
63087;SDS011;49173;43.164;27.786;2022-10-31T13:44:29;9.75;;;4.68;;
63087;SDS011;49173;43.164;27.786;2022-10-31T13:47:02;8.23;;;4.13;;
63087;SDS011;49173;43.164;27.786;2022-10-31T13:54:35;8.68;;;5.05;;
63087;SDS011;49173;43.164;27.786;2022-10-31T13:57:28;9.15;;;4.82;;
63087;SDS011;49173;43.164;27.786;2022-10-31T14:02:49;12.18;;;5.22;;
63087;SDS011;49173;43.164;27.786;2022-10-31T14:05:29;13.23;;;5.35;;
63087;SDS011;49173;43.164;27.786;2022-10-31T14:07:59;11.05;;;5.22;;
63087;SDS011;49173;43.164;27.786;2022-10-31T14:10:33;12.32;;;5.10;;
63087;SDS011;49173;43.164;27.786;2022-10-31T14:13:45;10.38;;;5.03;;
63087;SDS011;49173;43.164;27.786;2022-10-31T14:16:04;8.45;;;4.85;;
63087;SDS011;49173;43.164;27.786;2022-10-31T14:18:43;7.32;;;4.97;;
63087;SDS011;49173;43.164;27.786;2022-10-31T14:23:50;8.23;;;4.93;;
63087;SDS011;49173;43.164;27.786;2022-10-31T14:28:54;14.43;;;4.93;;
63087;SDS011;49173;43.164;27.786;2022-10-31T14:31:41;12.75;;;4.88;;
63087;SDS011;49173;43.164;27.786;2022-10-31T14:45:44;13.13;;;5.75;;
63087;SDS011;49173;43.164;27.786;2022-10-31T14:51:02;14.43;;;5.22;;
63087;SDS011;49173;43.164;27.786;2022-10-31T14:53:50;16.30;;;5.97;;
63087;SDS011;49173;43.164;27.786;2022-10-31T14:56:24;15.50;;;5.65;;
63087;SDS011;49173;43.164;27.786;2022-10-31T14:59:09;10.73;;;5.15;;
63087;SDS011;49173;43.164;27.786;2022-10-31T15:01:50;9.38;;;5.28;;
63087;SDS011;49173;43.164;27.786;2022-10-31T15:04:26;12.68;;;5.45;;
63087;SDS011;49173;43.164;27.786;2022-10-31T15:07:09;11.18;;;5.35;;
63087;SDS011;49173;43.164;27.786;2022-10-31T15:09:37;9.23;;;5.00;;
63087;SDS011;49173;43.164;27.786;2022-10-31T15:12:25;11.45;;;5.22;;
63087;SDS011;49173;43.164;27.786;2022-10-31T15:15:12;12.10;;;5.20;;
63087;SDS011;49173;43.164;27.786;2022-10-31T15:17:45;14.95;;;5.70;;
63087;SDS011;49173;43.164;27.786;2022-10-31T15:20:19;12.55;;;5.55;;
63087;SDS011;49173;43.164;27.786;2022-10-31T15:22:57;13.80;;;5.50;;
63087;SDS011;49173;43.164;27.786;2022-10-31T15:25:28;12.20;;;5.38;;
63087;SDS011;49173;43.164;27.786;2022-10-31T15:28:12;18.73;;;5.57;;
63087;SDS011;49173;43.164;27.786;2022-10-31T15:30:54;14.80;;;5.82;;
63087;SDS011;49173;43.164;27.786;2022-10-31T15:33:26;12.23;;;6.00;;
63087;SDS011;49173;43.164;27.786;2022-10-31T15:36:00;13.82;;;5.75;;
63087;SDS011;49173;43.164;27.786;2022-10-31T15:38:28;11.45;;;6.15;;
63087;SDS011;49173;43.164;27.786;2022-10-31T15:40:56;11.32;;;5.57;;
63087;SDS011;49173;43.164;27.786;2022-10-31T15:43:31;8.75;;;5.30;;
63087;SDS011;49173;43.164;27.786;2022-10-31T15:46:03;13.80;;;5.43;;
63087;SDS011;49173;43.164;27.786;2022-10-31T15:48:34;10.02;;;5.47;;
63087;SDS011;49173;43.164;27.786;2022-10-31T15:51:04;11.98;;;5.70;;
63087;SDS011;49173;43.164;27.786;2022-10-31T15:53:34;14.05;;;5.70;;
63087;SDS011;49173;43.164;27.786;2022-10-31T15:56:21;11.27;;;5.80;;
63087;SDS011;49173;43.164;27.786;2022-10-31T15:58:52;16.27;;;6.13;;
63087;SDS011;49173;43.164;27.786;2022-10-31T16:01:27;13.48;;;6.15;;
63087;SDS011;49173;43.164;27.786;2022-10-31T16:06:36;15.70;;;9.20;;
63087;SDS011;49173;43.164;27.786;2022-10-31T16:09:03;12.80;;;7.32;;
63087;SDS011;49173;43.164;27.786;2022-10-31T16:11:46;16.52;;;7.28;;
63087;SDS011;49173;43.164;27.786;2022-10-31T16:14:18;11.75;;;6.88;;
63087;SDS011;49173;43.164;27.786;2022-10-31T16:16:50;17.73;;;6.30;;
63087;SDS011;49173;43.164;27.786;2022-10-31T16:19:20;36.10;;;7.30;;
63087;SDS011;49173;43.164;27.786;2022-10-31T16:24:44;27.77;;;6.78;;
63087;SDS011;49173;43.164;27.786;2022-10-31T16:27:31;20.15;;;6.18;;
63087;SDS011;49173;43.164;27.786;2022-10-31T16:30:03;11.98;;;5.60;;
63087;SDS011;49173;43.164;27.786;2022-10-31T16:32:57;10.95;;;5.97;;
63087;SDS011;49173;43.164;27.786;2022-10-31T16:35:34;18.50;;;6.88;;
63087;SDS011;49173;43.164;27.786;2022-10-31T16:38:02;19.05;;;6.40;;
63087;SDS011;49173;43.164;27.786;2022-10-31T16:40:30;19.50;;;6.47;;
63087;SDS011;49173;43.164;27.786;2022-10-31T16:42:59;15.17;;;6.13;;
63087;SDS011;49173;43.164;27.786;2022-10-31T16:45:31;11.15;;;6.30;;
63087;SDS011;49173;43.164;27.786;2022-10-31T16:48:02;15.27;;;6.03;;
63087;SDS011;49173;43.164;27.786;2022-10-31T16:50:35;10.75;;;5.50;;
63087;SDS011;49173;43.164;27.786;2022-10-31T16:53:03;10.35;;;5.75;;
63087;SDS011;49173;43.164;27.786;2022-10-31T16:55:30;11.45;;;5.38;;
63087;SDS011;49173;43.164;27.786;2022-10-31T16:58:02;10.05;;;5.20;;
63087;SDS011;49173;43.164;27.786;2022-10-31T17:00:38;12.65;;;5.57;;